CheckWX is a tool to help pilots better visualize weather data.  It is not intended as a substitute for an official pre-flight weather briefing.

06:44:24 UTC

EFMI METAR
Mikkeli Airport
Mikkeli, Finland
Current

24 mins ago

EFMI 210620Z AUTO 10003KT CAVOK 16/14 Q1014
Observed
May-21 @ 06:20 UTC
Wind
  • 100° at 3 KTS
Visibility
10,000+ meters
Flight Rules
VFR
Cloud Levels
  • Clear skies
Temperature
16°C / 61°F
Dewpoint
14°C / 57°F
Humidity
88%
Altimeter
29.94" Hg
Pressure
1013.92 hPa
Previous

54 mins ago

EFMI 210550Z AUTO 11005KT CAVOK 15/13 Q1014
Observed
May-21 @ 05:50 UTC
Wind
  • 110° at 5 KTS
Visibility
10,000+ meters
Flight Rules
VFR
Cloud Levels
  • Clear skies
Temperature
15°C / 59°F
Dewpoint
13°C / 55°F
Humidity
88%
Altimeter
29.94" Hg
Pressure
1013.92 hPa
Previous

1 hour ago

EFMI 210520Z AUTO 08003KT CAVOK 15/13 Q1014
Observed
May-21 @ 05:20 UTC
Wind
  • 080° at 3 KTS
Visibility
10,000+ meters
Flight Rules
VFR
Cloud Levels
  • Clear skies
Temperature
15°C / 59°F
Dewpoint
13°C / 55°F
Humidity
88%
Altimeter
29.94" Hg
Pressure
1013.92 hPa